Saga — 9HA2591 — position and weather

sailwx.info

Track history (hours):
 
Tides and Currents Weather Stations Pressure Air Temp Water Temp Dewpoint Dewpoint Depression Visibility Wind Speed Wind Dir Waves Ship Positions

Saga

Last reported at 2017-Oct-22 11:59 UTC. Time now 2017-Oct-22 12:11 UTC.
Position N 60°20' E 028°42'.

Length 249 m; draft 8 m.

Type: Tanker. MMSI: 248964000.

Date/timePositionNaut miles runAvg speedWind from/ knotsBaromVisibWave heightAir tempDewpointWater temp
2017-Oct-22 11:59N 60°20' E 028°42'0 0.0
2017-Oct-22 11:26N 60°20' E 028°42'0 0.0
2017-Oct-22 10:59N 60°20' E 028°42'0 0.0
2017-Oct-22 10:29N 60°20' E 028°42'0 0.0
2017-Oct-22 09:59N 60°20' E 028°42'0 0.0
2017-Oct-22 09:29N 60°20' E 028°42'0 0.0
2017-Oct-22 08:59N 60°20' E 028°42'0 0.0
2017-Oct-22 08:29N 60°20' E 028°42'0 0.0
2017-Oct-22 08:00N 60°20' E 028°42'0 0.8
2017-Oct-22 07:31N 60°20' E 028°41'3 6.7
2017-Oct-22 07:00N 60°17' E 028°46'4 8.3
2017-Oct-22 06:31N 60°13' E 028°47'3 6.5
2017-Oct-22 06:00N 60°10' E 028°43'3 5.3
2017-Oct-22 05:30N 60°09' E 028°38'4 8.1
2017-Oct-22 05:00N 60°06' E 028°33'4 8.9
2017-Oct-22 04:30N 60°02' E 028°31'2 3.3
2017-Oct-22 04:00N 60°01' E 028°27'0 0.0
2017-Oct-22 03:30N 60°01' E 028°28'0 0.0
2017-Oct-22 02:57N 60°01' E 028°28'0 0.0
2017-Oct-22 02:30N 60°01' E 028°27'0 0.0
2017-Oct-22 02:00N 60°01' E 028°28'0 0.0
2017-Oct-22 01:30N 60°01' E 028°28'0 0.0
2017-Oct-22 01:00N 60°01' E 028°28'0 0.0
2017-Oct-22 00:30N 60°01' E 028°27'0 0.0
2017-Oct-22 00:00N 60°01' E 028°27'0 0.0
2017-Oct-21 23:30N 60°01' E 028°27'0 0.0
2017-Oct-21 23:00N 60°01' E 028°27'0 0.0
2017-Oct-21 22:30N 60°01' E 028°28'0 0.0
2017-Oct-21 22:00N 60°01' E 028°27'0 0.2
2017-Oct-21 21:30N 60°01' E 028°28'0 0.0
2017-Oct-21 21:00N 60°01' E 028°28'0 0.0
2017-Oct-21 20:30N 60°01' E 028°28'0 0.0
2017-Oct-21 20:00N 60°01' E 028°28'0 0.1
2017-Oct-21 19:28N 60°01' E 028°28'0 0.0
2017-Oct-21 19:00N 60°01' E 028°28'0 0.0
2017-Oct-21 18:30N 60°01' E 028°28'0 0.0
2017-Oct-21 18:00N 60°01' E 028°28'0 0.0
2017-Oct-21 17:30N 60°01' E 028°28'0 0.1
2017-Oct-21 17:00N 60°01' E 028°28'0 0.2
2017-Oct-21 16:30N 60°02' E 028°27'1 2.8
2017-Oct-21 16:01N 60°03' E 028°27'611.2
2017-Oct-21 15:30N 60°06' E 028°18'612.0
2017-Oct-21 15:00N 60°08' E 028°07'612.2
2017-Oct-21 14:31N 60°10' E 027°55'1211.8
2017-Oct-21 13:31N 60°07' E 027°32'612.6
2017-Oct-21 13:01N 60°03' E 027°21'612.6
2017-Oct-21 12:31N 59°60' E 027°10'611.6
2017-Oct-21 12:01N 59°58' E 026°59'612.1
2017-Oct-21 11:31N 59°59' E 026°47'612.1
2017-Oct-21 11:01N 59°59' E 026°35'612.3
2017-Oct-21 10:30N 59°57' E 026°24'2912.3
2017-Oct-21 08:07N 59°50' E 025°27'212.7
2017-Oct-21 08:00N 59°50' E 025°24'612.5
2017-Oct-21 07:30N 59°48' E 025°12'612.3
2017-Oct-21 07:00N 59°47' E 025°00'612.5
2017-Oct-21 06:31N 59°46' E 024°48'612.5
2017-Oct-21 06:00N 59°44' E 024°36'612.4
2017-Oct-21 05:30N 59°43' E 024°24'612.2
2017-Oct-21 05:00N 59°42' E 024°12'612.2
2017-Oct-21 04:30N 59°39' E 024°01'612.5
2017-Oct-21 04:00N 59°37' E 023°49'612.6
2017-Oct-21 03:30N 59°36' E 023°37'612.2
2017-Oct-21 03:00N 59°33' E 023°26'612.4
2017-Oct-21 02:30N 59°31' E 023°15'1112.2
2017-Oct-21 01:38N 59°28' E 022°55'25312.4
2017-Oct-20 05:13N 56°05' E 018°11'3612.1
2017-Oct-20 02:14N 55°51' E 017°12'312.1
2017-Oct-20 02:00N 55°50' E 017°07'612.0
2017-Oct-20 01:30N 55°49' E 016°57'612.2
2017-Oct-20 01:00N 55°48' E 016°46'612.1
2017-Oct-20 00:30N 55°46' E 016°36'612.2
2017-Oct-20 00:00N 55°45' E 016°25'612.4
2017-Oct-19 23:30N 55°44' E 016°14'612.7
2017-Oct-19 23:00N 55°42' E 016°04'612.5
2017-Oct-19 22:30N 55°40' E 015°53'612.0
2017-Oct-19 22:00N 55°39' E 015°43'612.2
2017-Oct-19 21:30N 55°38' E 015°32'612.4
2017-Oct-19 21:00N 55°35' E 015°22'612.5
2017-Oct-19 20:30N 55°33' E 015°12'612.3
2017-Oct-19 20:00N 55°30' E 015°02'612.3
2017-Oct-19 19:30N 55°28' E 014°52'612.3
2017-Oct-19 19:00N 55°25' E 014°42'612.6
2017-Oct-19 18:30N 55°20' E 014°35'613.0
2017-Oct-19 18:00N 55°15' E 014°28'612.0
2017-Oct-19 17:30N 55°11' E 014°20'612.7
2017-Oct-19 17:00N 55°10' E 014°09'612.4
2017-Oct-19 16:30N 55°11' E 013°58'712.5
2017-Oct-19 15:57N 55°11' E 013°46'612.9
2017-Oct-19 15:30N 55°12' E 013°36'712.2
2017-Oct-19 14:57N 55°12' E 013°24'511.7
2017-Oct-19 14:30N 55°12' E 013°15'611.6
2017-Oct-19 14:00N 55°13' E 013°05'611.9
2017-Oct-19 13:30N 55°14' E 012°55'611.9
2017-Oct-19 13:00N 55°16' E 012°45'5 9.0
2017-Oct-19 12:30N 55°19' E 012°38'510.3
2017-Oct-19 12:00N 55°24' E 012°39'510.5
2017-Oct-19 11:30N 55°29' E 012°41'5 9.2
2017-Oct-19 11:00N 55°34' E 012°42'4 8.7
2017-Oct-19 10:30N 55°38' E 012°42'510.6
2017-Oct-19 10:00N 55°43' E 012°41'4 7.5
2017-Oct-19 09:30N 55°47' E 012°42'510.5
2017-Oct-19 09:00N 55°52' E 012°40'611.9
2017-Oct-19 08:30N 55°58' E 012°40'611.9
2017-Oct-19 08:00N 56°04' E 012°38'510.2
2017-Oct-19 07:30N 56°07' E 012°31'4 8.7
2017-Oct-19 07:01N 56°10' E 012°24'5 9.2
2017-Oct-19 06:30N 56°12' E 012°17'3610.1
2017-Oct-19 02:59N 56°45' E 011°52'711.5
2017-Oct-19 02:23N 56°51' E 011°47'511.9
2017-Oct-19 01:57N 56°56' E 011°45'511.8
2017-Oct-19 01:30N 57°01' E 011°42'611.6
2017-Oct-19 00:58N 57°07' E 011°38'611.5
2017-Oct-19 00:29N 57°12' E 011°34'612.0
2017-Oct-19 00:00N 57°18' E 011°31'611.9
2017-Oct-18 23:30N 57°23' E 011°27'611.5
2017-Oct-18 23:00N 57°28' E 011°21'611.5
2017-Oct-18 22:30N 57°32' E 011°13'611.8
2017-Oct-18 21:59N 57°36' E 011°05'611.6
2017-Oct-18 21:31N 57°40' E 010°58'611.5
2017-Oct-18 21:00N 57°44' E 010°51'611.2
2017-Oct-18 20:30N 57°47' E 010°41'612.2
2017-Oct-18 20:00N 57°47' E 010°30'612.3
2017-Oct-18 19:30N 57°47' E 010°19'612.2
2017-Oct-18 19:00N 57°47' E 010°07'612.2
2017-Oct-18 18:31N 57°46' E 009°56'611.6
2017-Oct-18 17:59N 57°46' E 009°44'711.9
2017-Oct-18 17:24N 57°45' E 009°31'812.2
2017-Oct-18 16:47N 57°42' E 009°19'412.5
2017-Oct-18 16:30N 57°40' E 009°13'712.3
2017-Oct-18 15:58N 57°36' E 009°03'612.2
2017-Oct-18 15:30N 57°33' E 008°54'612.1
2017-Oct-18 14:59N 57°30' E 008°44'1212.0
2017-Oct-18 14:00N 57°24' E 008°26'612.1
2017-Oct-18 13:29N 57°20' E 008°16'612.1
2017-Oct-18 13:00N 57°17' E 008°07'612.2
2017-Oct-18 12:29N 57°13' E 007°58'612.0
2017-Oct-18 11:59N 57°10' E 007°48'611.8
2017-Oct-18 11:30N 57°07' E 007°40'611.8
2017-Oct-18 11:00N 57°03' E 007°31'611.9
2017-Oct-18 10:30N 56°58' E 007°26'611.9
2017-Oct-18 10:00N 56°52' E 007°21'612.2
2017-Oct-18 09:29N 56°47' E 007°16'612.2
2017-Oct-18 08:59N 56°42' E 007°10'612.2
2017-Oct-18 08:30N 56°37' E 007°05'29912.8
2017-Oct-17 09:05N 52°18' E 002°48'113.7
2017-Oct-17 08:59N 52°17' E 002°47'1613.2
2017-Oct-17 07:47N 52°01' E 002°40'713.1
2017-Oct-17 07:13N 51°54' E 002°40'912.5
2017-Oct-17 06:29N 51°46' E 002°34'612.4
2017-Oct-17 05:57N 51°41' E 002°28'612.3
2017-Oct-17 05:30N 51°36' E 002°22'612.6
2017-Oct-17 05:00N 51°32' E 002°15'613.0
2017-Oct-17 04:30N 51°27' E 002°08'713.3
2017-Oct-17 04:00N 51°20' E 002°08'612.8
2017-Oct-17 03:30N 51°14' E 002°05'713.4
2017-Oct-17 03:00N 51°11' E 001°55'713.5
2017-Oct-17 02:31N 51°08' E 001°46'713.9
2017-Oct-17 02:01N 51°03' E 001°38'714.4
2017-Oct-17 01:31N 50°58' E 001°30'714.6
2017-Oct-17 01:00N 50°51' E 001°26'714.5
2017-Oct-17 00:30N 50°44' E 001°23'814.0
2017-Oct-16 23:58N 50°38' E 001°15'714.2
2017-Oct-16 23:30N 50°33' E 001°08'713.8
2017-Oct-16 23:00N 50°29' E 000°59'714.0
2017-Oct-16 22:30N 50°27' E 000°49'714.1
2017-Oct-16 21:59N 50°24' E 000°38'814.2
2017-Oct-16 21:25N 50°22' E 000°26'1014.4
2017-Oct-16 20:42N 50°18' E 000°11'314.3
2017-Oct-16 20:31N 50°17' E 000°07'714.0
2017-Oct-16 20:00N 50°12' W 000°00'714.6
2017-Oct-16 19:31N 50°06' W 000°07'714.6
2017-Oct-16 19:01N 50°00' W 000°14'714.5
2017-Oct-16 18:31N 49°54' W 000°20'815.1
2017-Oct-16 18:00N 49°48' W 000°27'713.4
2017-Oct-16 17:30N 49°42' W 000°23'713.7
2017-Oct-16 17:00N 49°35' W 000°19'612.3
2017-Oct-16 16:30N 49°32' W 000°11'2 4.8
2017-Oct-16 16:00N 49°31' W 000°08'0 0.1
2017-Oct-16 15:30N 49°31' W 000°08'0 0.8
2017-Oct-16 15:00N 49°32' W 000°08'1110.6
2017-Oct-16 14:00N 49°28' E 000°08'0 0.3
2017-Oct-16 13:30N 49°28' E 000°08'0 0.0
2017-Oct-16 13:00N 49°28' E 000°08'0 0.0
2017-Oct-16 12:30N 49°28' E 000°08'0 0.0
2017-Oct-16 12:00N 49°28' E 000°08'0 0.0
2017-Oct-16 11:30N 49°28' E 000°08'0 0.0
2017-Oct-16 11:00N 49°28' E 000°08'0 0.0
2017-Oct-16 10:30N 49°28' E 000°08'0 0.0
2017-Oct-16 10:00N 49°28' E 000°08'0 0.0
2017-Oct-16 09:30N 49°28' E 000°08'0 0.0
2017-Oct-16 09:00N 49°28' E 000°08'0 0.0
2017-Oct-16 08:30N 49°28' E 000°08'0 0.0
2017-Oct-16 07:57N 49°28' E 000°08'0 0.0
2017-Oct-16 07:30N 49°28' E 000°08'0 0.0
2017-Oct-16 07:00N 49°28' E 000°08'0 0.0
2017-Oct-16 06:30N 49°28' E 000°08'0 0.0
2017-Oct-16 06:00N 49°28' E 000°08'0 0.0
2017-Oct-16 05:30N 49°28' E 000°08'0 0.0
2017-Oct-16 05:00N 49°28' E 000°08'0 0.0
2017-Oct-16 04:30N 49°28' E 000°08'0 0.0
2017-Oct-16 04:00N 49°28' E 000°08'0 0.0
2017-Oct-16 03:30N 49°28' E 000°08'0 0.0
2017-Oct-16 03:00N 49°28' E 000°08'0 0.0
2017-Oct-16 02:30N 49°28' E 000°08'0 0.0
2017-Oct-16 02:00N 49°28' E 000°08'0 0.0
2017-Oct-16 01:30N 49°28' E 000°08'0 0.0
2017-Oct-16 01:00N 49°28' E 000°08'0 0.0
2017-Oct-16 00:30N 49°28' E 000°08'0 0.0
2017-Oct-16 00:00N 49°28' E 000°08'0 0.0
2017-Oct-15 23:30N 49°28' E 000°08'0 0.0
2017-Oct-15 23:00N 49°28' E 000°08'0 0.0
2017-Oct-15 22:30N 49°28' E 000°08'0 0.0
2017-Oct-15 22:00N 49°28' E 000°08'0 0.0
2017-Oct-15 21:30N 49°28' E 000°08'0 0.0
2017-Oct-15 21:00N 49°28' E 000°08'0 0.0
2017-Oct-15 20:30N 49°28' E 000°08'0 0.0
2017-Oct-15 20:00N 49°28' E 000°08'0 0.0
2017-Oct-15 19:30N 49°28' E 000°08'0 0.0
2017-Oct-15 19:00N 49°28' E 000°08'0 0.0
2017-Oct-15 18:30N 49°28' E 000°08'0 0.0
2017-Oct-15 18:00N 49°28' E 000°08'0 0.0
2017-Oct-15 17:30N 49°28' E 000°08'0 0.0
2017-Oct-15 17:00N 49°28' E 000°08'0 0.0
2017-Oct-15 16:30N 49°28' E 000°08'0 0.0
2017-Oct-15 16:00N 49°28' E 000°08'0 0.0
2017-Oct-15 15:30N 49°28' E 000°08'0 0.0
2017-Oct-15 15:00N 49°28' E 000°08'0 0.0
2017-Oct-15 14:00N 49°28' E 000°08'0 0.0
2017-Oct-15 13:30N 49°28' E 000°08'0 0.0
2017-Oct-15 13:00N 49°28' E 000°08'0 0.0
2017-Oct-15 12:30N 49°28' E 000°08'0 0.0
2017-Oct-15 12:00N 49°28' E 000°08'0 0.0
2017-Oct-15 11:30N 49°28' E 000°08'0 0.0
2017-Oct-15 11:00N 49°28' E 000°08'0 0.0
2017-Oct-15 10:30N 49°28' E 000°08'0 0.0
2017-Oct-15 10:00N 49°28' E 000°08'0 0.0
2017-Oct-15 09:30N 49°28' E 000°08'0 0.0
2017-Oct-15 09:00N 49°28' E 000°08'0 0.0
2017-Oct-15 08:30N 49°28' E 000°08'0 0.0
2017-Oct-15 08:00N 49°28' E 000°08'0 0.0
2017-Oct-15 07:30N 49°28' E 000°08'0 0.0
2017-Oct-15 07:00N 49°28' E 000°08'0 0.0
2017-Oct-15 06:30N 49°28' E 000°08'0 0.0
2017-Oct-15 06:00N 49°28' E 000°08'0 0.0
2017-Oct-15 05:30N 49°28' E 000°08'1 1.1
2017-Oct-15 05:00N 49°28' E 000°09'0 0.3
2017-Oct-15 04:30N 49°28' E 000°08'3 5.3
2017-Oct-15 04:00N 49°29' E 000°05'510.1
2017-Oct-15 03:30N 49°31' W 000°03'510.3
2017-Oct-15 03:00N 49°33' W 000°10'4 7.0
2017-Oct-15 02:30N 49°34' W 000°15'3 6.3
2017-Oct-15 02:00N 49°35' W 000°20'4 7.6
2017-Oct-15 01:30N 49°37' W 000°24'4 8.5
2017-Oct-15 01:00N 49°40' W 000°30'1510.1
2017-Oct-14 23:29N 49°46' W 000°51'1310.0
2017-Oct-14 22:11N 49°51' W 001°09'210.1
2017-Oct-14 22:00N 49°52' W 001°12'510.1
2017-Oct-14 21:30N 49°54' W 001°19'510.7
2017-Oct-14 21:01N 49°55' W 001°27'611.0
2017-Oct-14 20:30N 49°55' W 001°36'611.0
2017-Oct-14 20:00N 49°55' W 001°44'611.2
2017-Oct-14 19:30N 49°55' W 001°53'611.4
2017-Oct-14 19:00N 49°54' W 002°02'611.6
2017-Oct-14 18:30N 49°54' W 002°11'612.1
2017-Oct-14 18:00N 49°53' W 002°20'611.4
2017-Oct-14 17:30N 49°52' W 002°29'611.8
2017-Oct-14 17:00N 49°51' W 002°38'612.1
2017-Oct-14 16:30N 49°49' W 002°47'612.2
2017-Oct-14 16:00N 49°46' W 002°55'612.2
2017-Oct-14 15:30N 49°43' W 003°04'612.2
2017-Oct-14 15:00N 49°40' W 003°12'612.0
2017-Oct-14 14:30N 49°37' W 003°20'612.0
2017-Oct-14 14:00N 49°34' W 003°28'612.3
2017-Oct-14 13:30N 49°31' W 003°36'612.1
2017-Oct-14 13:00N 49°28' W 003°44'812.1
2017-Oct-14 12:18N 49°24' W 003°56'512.2
2017-Oct-14 11:55N 49°22' W 004°02'512.0
2017-Oct-14 11:30N 49°20' W 004°09'612.1
2017-Oct-14 10:59N 49°17' W 004°17'612.4
2017-Oct-14 10:30N 49°14' W 004°25'712.3
2017-Oct-14 09:58N 49°10' W 004°34'612.2
2017-Oct-14 09:29N 49°08' W 004°42'612.1
2017-Oct-14 09:00N 49°05' W 004°50'612.2
2017-Oct-14 08:30N 49°02' W 004°58'612.4
2017-Oct-14 08:01N 48°59' W 005°06'612.3
2017-Oct-14 07:30N 48°56' W 005°14'612.6
2017-Oct-14 07:00N 48°52' W 005°22'612.6
2017-Oct-14 06:30N 48°49' W 005°31'612.6
2017-Oct-14 06:00N 48°46' W 005°39'612.6
2017-Oct-14 05:30N 48°40' W 005°43'910.2
2017-Oct-14 04:39N 48°33' W 005°49'1 8.1
2017-Oct-14 04:29N 48°31' W 005°50'4 8.2
2017-Oct-14 03:59N 48°28' W 005°53'1711.5
2017-Oct-14 02:33N 48°13' W 006°05'512.1
2017-Oct-14 02:07N 48°09' W 006°09'112.1
2017-Oct-14 02:00N 48°08' W 006°10'812.2
2017-Oct-14 01:22N 48°01' W 006°15'1312.3
2017-Oct-14 00:18N 47°49' W 006°24'412.5
2017-Oct-13 23:59N 47°46' W 006°26'40412.6
2017-Oct-12 15:56N 41°30' W 009°57'613.3
2017-Oct-12 15:30N 41°25' W 009°57'813.0
2017-Oct-12 14:55N 41°17' W 009°57'812.4
2017-Oct-12 14:18N 41°09' W 009°57'412.2
2017-Oct-12 13:59N 41°05' W 009°57'712.3
2017-Oct-12 13:25N 40°58' W 009°57'512.5
2017-Oct-12 12:59N 40°53' W 009°57'912.6
2017-Oct-12 12:19N 40°45' W 009°57'  
Track history (hours):
 
Tides and Currents Weather Stations Pressure Air Temp Water Temp Dewpoint Dewpoint Depression Visibility Wind Speed Wind Dir Waves Ship Positions

Saga

Last reported at 2017-Oct-22 11:59 UTC. Time now 2017-Oct-22 12:11 UTC.
Position N 60°20' E 028°42'.

Length 249 m; draft 8 m.

Type: Tanker. MMSI: 248964000.

Date/timePositionNaut miles runAvg speedWind from/ knotsBaromVisibWave heightAir tempDewpointWater temp
2017-Oct-22 11:59N 60°20' E 028°42'0 0.0
2017-Oct-22 11:26N 60°20' E 028°42'0 0.0
2017-Oct-22 10:59N 60°20' E 028°42'0 0.0
2017-Oct-22 10:29N 60°20' E 028°42'0 0.0
2017-Oct-22 09:59N 60°20' E 028°42'0 0.0
2017-Oct-22 09:29N 60°20' E 028°42'0 0.0
2017-Oct-22 08:59N 60°20' E 028°42'0 0.0
2017-Oct-22 08:29N 60°20' E 028°42'0 0.0
2017-Oct-22 08:00N 60°20' E 028°42'0 0.8
2017-Oct-22 07:31N 60°20' E 028°41'3 6.7
2017-Oct-22 07:00N 60°17' E 028°46'4 8.3
2017-Oct-22 06:31N 60°13' E 028°47'3 6.5
2017-Oct-22 06:00N 60°10' E 028°43'3 5.3
2017-Oct-22 05:30N 60°09' E 028°38'4 8.1
2017-Oct-22 05:00N 60°06' E 028°33'4 8.9
2017-Oct-22 04:30N 60°02' E 028°31'2 3.3
2017-Oct-22 04:00N 60°01' E 028°27'0 0.0
2017-Oct-22 03:30N 60°01' E 028°28'0 0.0
2017-Oct-22 02:57N 60°01' E 028°28'0 0.0
2017-Oct-22 02:30N 60°01' E 028°27'0 0.0
2017-Oct-22 02:00N 60°01' E 028°28'0 0.0
2017-Oct-22 01:30N 60°01' E 028°28'0 0.0
2017-Oct-22 01:00N 60°01' E 028°28'0 0.0
2017-Oct-22 00:30N 60°01' E 028°27'0 0.0
2017-Oct-22 00:00N 60°01' E 028°27'0 0.0
2017-Oct-21 23:30N 60°01' E 028°27'0 0.0
2017-Oct-21 23:00N 60°01' E 028°27'0 0.0
2017-Oct-21 22:30N 60°01' E 028°28'0 0.0
2017-Oct-21 22:00N 60°01' E 028°27'0 0.2
2017-Oct-21 21:30N 60°01' E 028°28'0 0.0
2017-Oct-21 21:00N 60°01' E 028°28'0 0.0
2017-Oct-21 20:30N 60°01' E 028°28'0 0.0
2017-Oct-21 20:00N 60°01' E 028°28'0 0.1
2017-Oct-21 19:28N 60°01' E 028°28'0 0.0
2017-Oct-21 19:00N 60°01' E 028°28'0 0.0
2017-Oct-21 18:30N 60°01' E 028°28'0 0.0
2017-Oct-21 18:00N 60°01' E 028°28'0 0.0
2017-Oct-21 17:30N 60°01' E 028°28'0 0.1
2017-Oct-21 17:00N 60°01' E 028°28'0 0.2
2017-Oct-21 16:30N 60°02' E 028°27'1 2.8
2017-Oct-21 16:01N 60°03' E 028°27'611.2
2017-Oct-21 15:30N 60°06' E 028°18'612.0
2017-Oct-21 15:00N 60°08' E 028°07'612.2
2017-Oct-21 14:31N 60°10' E 027°55'1211.8
2017-Oct-21 13:31N 60°07' E 027°32'612.6
2017-Oct-21 13:01N 60°03' E 027°21'612.6
2017-Oct-21 12:31N 59°60' E 027°10'611.6
2017-Oct-21 12:01N 59°58' E 026°59'612.1
2017-Oct-21 11:31N 59°59' E 026°47'612.1
2017-Oct-21 11:01N 59°59' E 026°35'612.3
2017-Oct-21 10:30N 59°57' E 026°24'2912.3
2017-Oct-21 08:07N 59°50' E 025°27'212.7
2017-Oct-21 08:00N 59°50' E 025°24'612.5
2017-Oct-21 07:30N 59°48' E 025°12'612.3
2017-Oct-21 07:00N 59°47' E 025°00'612.5
2017-Oct-21 06:31N 59°46' E 024°48'612.5
2017-Oct-21 06:00N 59°44' E 024°36'612.4
2017-Oct-21 05:30N 59°43' E 024°24'612.2
2017-Oct-21 05:00N 59°42' E 024°12'612.2
2017-Oct-21 04:30N 59°39' E 024°01'612.5
2017-Oct-21 04:00N 59°37' E 023°49'612.6
2017-Oct-21 03:30N 59°36' E 023°37'612.2
2017-Oct-21 03:00N 59°33' E 023°26'612.4
2017-Oct-21 02:30N 59°31' E 023°15'1112.2
2017-Oct-21 01:38N 59°28' E 022°55'25312.4
2017-Oct-20 05:13N 56°05' E 018°11'3612.1
2017-Oct-20 02:14N 55°51' E 017°12'312.1
2017-Oct-20 02:00N 55°50' E 017°07'612.0
2017-Oct-20 01:30N 55°49' E 016°57'612.2
2017-Oct-20 01:00N 55°48' E 016°46'612.1
2017-Oct-20 00:30N 55°46' E 016°36'612.2
2017-Oct-20 00:00N 55°45' E 016°25'612.4
2017-Oct-19 23:30N 55°44' E 016°14'612.7
2017-Oct-19 23:00N 55°42' E 016°04'612.5
2017-Oct-19 22:30N 55°40' E 015°53'612.0
2017-Oct-19 22:00N 55°39' E 015°43'612.2
2017-Oct-19 21:30N 55°38' E 015°32'612.4
2017-Oct-19 21:00N 55°35' E 015°22'612.5
2017-Oct-19 20:30N 55°33' E 015°12'612.3
2017-Oct-19 20:00N 55°30' E 015°02'612.3
2017-Oct-19 19:30N 55°28' E 014°52'612.3
2017-Oct-19 19:00N 55°25' E 014°42'612.6
2017-Oct-19 18:30N 55°20' E 014°35'613.0
2017-Oct-19 18:00N 55°15' E 014°28'612.0
2017-Oct-19 17:30N 55°11' E 014°20'612.7
2017-Oct-19 17:00N 55°10' E 014°09'612.4
2017-Oct-19 16:30N 55°11' E 013°58'712.5
2017-Oct-19 15:57N 55°11' E 013°46'612.9
2017-Oct-19 15:30N 55°12' E 013°36'712.2
2017-Oct-19 14:57N 55°12' E 013°24'511.7
2017-Oct-19 14:30N 55°12' E 013°15'611.6
2017-Oct-19 14:00N 55°13' E 013°05'611.9
2017-Oct-19 13:30N 55°14' E 012°55'611.9
2017-Oct-19 13:00N 55°16' E 012°45'5 9.0
2017-Oct-19 12:30N 55°19' E 012°38'510.3
2017-Oct-19 12:00N 55°24' E 012°39'510.5
2017-Oct-19 11:30N 55°29' E 012°41'5 9.2
2017-Oct-19 11:00N 55°34' E 012°42'4 8.7
2017-Oct-19 10:30N 55°38' E 012°42'510.6
2017-Oct-19 10:00N 55°43' E 012°41'4 7.5
2017-Oct-19 09:30N 55°47' E 012°42'510.5
2017-Oct-19 09:00N 55°52' E 012°40'611.9
2017-Oct-19 08:30N 55°58' E 012°40'611.9
2017-Oct-19 08:00N 56°04' E 012°38'510.2
2017-Oct-19 07:30N 56°07' E 012°31'4 8.7
2017-Oct-19 07:01N 56°10' E 012°24'5 9.2
2017-Oct-19 06:30N 56°12' E 012°17'3610.1
2017-Oct-19 02:59N 56°45' E 011°52'711.5
2017-Oct-19 02:23N 56°51' E 011°47'511.9
2017-Oct-19 01:57N 56°56' E 011°45'511.8
2017-Oct-19 01:30N 57°01' E 011°42'611.6
2017-Oct-19 00:58N 57°07' E 011°38'611.5
2017-Oct-19 00:29N 57°12' E 011°34'612.0
2017-Oct-19 00:00N 57°18' E 011°31'611.9
2017-Oct-18 23:30N 57°23' E 011°27'611.5
2017-Oct-18 23:00N 57°28' E 011°21'611.5
2017-Oct-18 22:30N 57°32' E 011°13'611.8
2017-Oct-18 21:59N 57°36' E 011°05'611.6
2017-Oct-18 21:31N 57°40' E 010°58'611.5
2017-Oct-18 21:00N 57°44' E 010°51'611.2
2017-Oct-18 20:30N 57°47' E 010°41'612.2
2017-Oct-18 20:00N 57°47' E 010°30'612.3
2017-Oct-18 19:30N 57°47' E 010°19'612.2
2017-Oct-18 19:00N 57°47' E 010°07'612.2
2017-Oct-18 18:31N 57°46' E 009°56'611.6
2017-Oct-18 17:59N 57°46' E 009°44'711.9
2017-Oct-18 17:24N 57°45' E 009°31'812.2
2017-Oct-18 16:47N 57°42' E 009°19'412.5
2017-Oct-18 16:30N 57°40' E 009°13'712.3
2017-Oct-18 15:58N 57°36' E 009°03'612.2
2017-Oct-18 15:30N 57°33' E 008°54'612.1
2017-Oct-18 14:59N 57°30' E 008°44'1212.0
2017-Oct-18 14:00N 57°24' E 008°26'612.1
2017-Oct-18 13:29N 57°20' E 008°16'612.1
2017-Oct-18 13:00N 57°17' E 008°07'612.2
2017-Oct-18 12:29N 57°13' E 007°58'612.0
2017-Oct-18 11:59N 57°10' E 007°48'611.8
2017-Oct-18 11:30N 57°07' E 007°40'611.8
2017-Oct-18 11:00N 57°03' E 007°31'611.9
2017-Oct-18 10:30N 56°58' E 007°26'611.9
2017-Oct-18 10:00N 56°52' E 007°21'612.2
2017-Oct-18 09:29N 56°47' E 007°16'612.2
2017-Oct-18 08:59N 56°42' E 007°10'612.2
2017-Oct-18 08:30N 56°37' E 007°05'29912.8
2017-Oct-17 09:05N 52°18' E 002°48'113.7
2017-Oct-17 08:59N 52°17' E 002°47'1613.2
2017-Oct-17 07:47N 52°01' E 002°40'713.1
2017-Oct-17 07:13N 51°54' E 002°40'912.5
2017-Oct-17 06:29N 51°46' E 002°34'612.4
2017-Oct-17 05:57N 51°41' E 002°28'612.3
2017-Oct-17 05:30N 51°36' E 002°22'612.6
2017-Oct-17 05:00N 51°32' E 002°15'613.0
2017-Oct-17 04:30N 51°27' E 002°08'713.3
2017-Oct-17 04:00N 51°20' E 002°08'612.8
2017-Oct-17 03:30N 51°14' E 002°05'713.4
2017-Oct-17 03:00N 51°11' E 001°55'713.5
2017-Oct-17 02:31N 51°08' E 001°46'713.9
2017-Oct-17 02:01N 51°03' E 001°38'714.4
2017-Oct-17 01:31N 50°58' E 001°30'714.6
2017-Oct-17 01:00N 50°51' E 001°26'714.5
2017-Oct-17 00:30N 50°44' E 001°23'814.0
2017-Oct-16 23:58N 50°38' E 001°15'714.2
2017-Oct-16 23:30N 50°33' E 001°08'713.8
2017-Oct-16 23:00N 50°29' E 000°59'714.0
2017-Oct-16 22:30N 50°27' E 000°49'714.1
2017-Oct-16 21:59N 50°24' E 000°38'814.2
2017-Oct-16 21:25N 50°22' E 000°26'1014.4
2017-Oct-16 20:42N 50°18' E 000°11'314.3
2017-Oct-16 20:31N 50°17' E 000°07'714.0
2017-Oct-16 20:00N 50°12' W 000°00'714.6
2017-Oct-16 19:31N 50°06' W 000°07'714.6
2017-Oct-16 19:01N 50°00' W 000°14'714.5
2017-Oct-16 18:31N 49°54' W 000°20'815.1
2017-Oct-16 18:00N 49°48' W 000°27'713.4
2017-Oct-16 17:30N 49°42' W 000°23'713.7
2017-Oct-16 17:00N 49°35' W 000°19'612.3
2017-Oct-16 16:30N 49°32' W 000°11'2 4.8
2017-Oct-16 16:00N 49°31' W 000°08'0 0.1
2017-Oct-16 15:30N 49°31' W 000°08'0 0.8
2017-Oct-16 15:00N 49°32' W 000°08'1110.6
2017-Oct-16 14:00N 49°28' E 000°08'0 0.3
2017-Oct-16 13:30N 49°28' E 000°08'0 0.0
2017-Oct-16 13:00N 49°28' E 000°08'0 0.0
2017-Oct-16 12:30N 49°28' E 000°08'0 0.0
2017-Oct-16 12:00N 49°28' E 000°08'0 0.0
2017-Oct-16 11:30N 49°28' E 000°08'0 0.0
2017-Oct-16 11:00N 49°28' E 000°08'0 0.0
2017-Oct-16 10:30N 49°28' E 000°08'0 0.0
2017-Oct-16 10:00N 49°28' E 000°08'0 0.0
2017-Oct-16 09:30N 49°28' E 000°08'0 0.0
2017-Oct-16 09:00N 49°28' E 000°08'0 0.0
2017-Oct-16 08:30N 49°28' E 000°08'0 0.0
2017-Oct-16 07:57N 49°28' E 000°08'0 0.0
2017-Oct-16 07:30N 49°28' E 000°08'0 0.0
2017-Oct-16 07:00N 49°28' E 000°08'0 0.0
2017-Oct-16 06:30N 49°28' E 000°08'0 0.0
2017-Oct-16 06:00N 49°28' E 000°08'0 0.0
2017-Oct-16 05:30N 49°28' E 000°08'0 0.0
2017-Oct-16 05:00N 49°28' E 000°08'0 0.0
2017-Oct-16 04:30N 49°28' E 000°08'0 0.0
2017-Oct-16 04:00N 49°28' E 000°08'0 0.0
2017-Oct-16 03:30N 49°28' E 000°08'0 0.0
2017-Oct-16 03:00N 49°28' E 000°08'0 0.0
2017-Oct-16 02:30N 49°28' E 000°08'0 0.0
2017-Oct-16 02:00N 49°28' E 000°08'0 0.0
2017-Oct-16 01:30N 49°28' E 000°08'0 0.0
2017-Oct-16 01:00N 49°28' E 000°08'0 0.0
2017-Oct-16 00:30N 49°28' E 000°08'0 0.0
2017-Oct-16 00:00N 49°28' E 000°08'0 0.0
2017-Oct-15 23:30N 49°28' E 000°08'0 0.0
2017-Oct-15 23:00N 49°28' E 000°08'0 0.0
2017-Oct-15 22:30N 49°28' E 000°08'0 0.0
2017-Oct-15 22:00N 49°28' E 000°08'0 0.0
2017-Oct-15 21:30N 49°28' E 000°08'0 0.0
2017-Oct-15 21:00N 49°28' E 000°08'0 0.0
2017-Oct-15 20:30N 49°28' E 000°08'0 0.0
2017-Oct-15 20:00N 49°28' E 000°08'0 0.0
2017-Oct-15 19:30N 49°28' E 000°08'0 0.0
2017-Oct-15 19:00N 49°28' E 000°08'0 0.0
2017-Oct-15 18:30N 49°28' E 000°08'0 0.0
2017-Oct-15 18:00N 49°28' E 000°08'0 0.0
2017-Oct-15 17:30N 49°28' E 000°08'0 0.0
2017-Oct-15 17:00N 49°28' E 000°08'0 0.0
2017-Oct-15 16:30N 49°28' E 000°08'0 0.0
2017-Oct-15 16:00N 49°28' E 000°08'0 0.0
2017-Oct-15 15:30N 49°28' E 000°08'0 0.0
2017-Oct-15 15:00N 49°28' E 000°08'0 0.0
2017-Oct-15 14:00N 49°28' E 000°08'0 0.0
2017-Oct-15 13:30N 49°28' E 000°08'0 0.0
2017-Oct-15 13:00N 49°28' E 000°08'0 0.0
2017-Oct-15 12:30N 49°28' E 000°08'0 0.0
2017-Oct-15 12:00N 49°28' E 000°08'0 0.0
2017-Oct-15 11:30N 49°28' E 000°08'0 0.0
2017-Oct-15 11:00N 49°28' E 000°08'0 0.0
2017-Oct-15 10:30N 49°28' E 000°08'0 0.0
2017-Oct-15 10:00N 49°28' E 000°08'0 0.0
2017-Oct-15 09:30N 49°28' E 000°08'0 0.0
2017-Oct-15 09:00N 49°28' E 000°08'0 0.0
2017-Oct-15 08:30N 49°28' E 000°08'0 0.0
2017-Oct-15 08:00N 49°28' E 000°08'0 0.0
2017-Oct-15 07:30N 49°28' E 000°08'0 0.0
2017-Oct-15 07:00N 49°28' E 000°08'0 0.0
2017-Oct-15 06:30N 49°28' E 000°08'0 0.0
2017-Oct-15 06:00N 49°28' E 000°08'0 0.0
2017-Oct-15 05:30N 49°28' E 000°08'1 1.1
2017-Oct-15 05:00N 49°28' E 000°09'0 0.3
2017-Oct-15 04:30N 49°28' E 000°08'3 5.3
2017-Oct-15 04:00N 49°29' E 000°05'510.1
2017-Oct-15 03:30N 49°31' W 000°03'510.3
2017-Oct-15 03:00N 49°33' W 000°10'4 7.0
2017-Oct-15 02:30N 49°34' W 000°15'3 6.3
2017-Oct-15 02:00N 49°35' W 000°20'4 7.6
2017-Oct-15 01:30N 49°37' W 000°24'4 8.5
2017-Oct-15 01:00N 49°40' W 000°30'1510.1
2017-Oct-14 23:29N 49°46' W 000°51'1310.0
2017-Oct-14 22:11N 49°51' W 001°09'210.1
2017-Oct-14 22:00N 49°52' W 001°12'510.1
2017-Oct-14 21:30N 49°54' W 001°19'510.7
2017-Oct-14 21:01N 49°55' W 001°27'611.0
2017-Oct-14 20:30N 49°55' W 001°36'611.0
2017-Oct-14 20:00N 49°55' W 001°44'611.2
2017-Oct-14 19:30N 49°55' W 001°53'611.4
2017-Oct-14 19:00N 49°54' W 002°02'611.6
2017-Oct-14 18:30N 49°54' W 002°11'612.1
2017-Oct-14 18:00N 49°53' W 002°20'611.4
2017-Oct-14 17:30N 49°52' W 002°29'611.8
2017-Oct-14 17:00N 49°51' W 002°38'612.1
2017-Oct-14 16:30N 49°49' W 002°47'612.2
2017-Oct-14 16:00N 49°46' W 002°55'612.2
2017-Oct-14 15:30N 49°43' W 003°04'612.2
2017-Oct-14 15:00N 49°40' W 003°12'612.0
2017-Oct-14 14:30N 49°37' W 003°20'612.0
2017-Oct-14 14:00N 49°34' W 003°28'612.3
2017-Oct-14 13:30N 49°31' W 003°36'612.1
2017-Oct-14 13:00N 49°28' W 003°44'812.1
2017-Oct-14 12:18N 49°24' W 003°56'512.2
2017-Oct-14 11:55N 49°22' W 004°02'512.0
2017-Oct-14 11:30N 49°20' W 004°09'612.1
2017-Oct-14 10:59N 49°17' W 004°17'612.4
2017-Oct-14 10:30N 49°14' W 004°25'712.3
2017-Oct-14 09:58N 49°10' W 004°34'612.2
2017-Oct-14 09:29N 49°08' W 004°42'612.1
2017-Oct-14 09:00N 49°05' W 004°50'612.2
2017-Oct-14 08:30N 49°02' W 004°58'612.4
2017-Oct-14 08:01N 48°59' W 005°06'612.3
2017-Oct-14 07:30N 48°56' W 005°14'612.6
2017-Oct-14 07:00N 48°52' W 005°22'612.6
2017-Oct-14 06:30N 48°49' W 005°31'612.6
2017-Oct-14 06:00N 48°46' W 005°39'612.6
2017-Oct-14 05:30N 48°40' W 005°43'910.2
2017-Oct-14 04:39N 48°33' W 005°49'1 8.1
2017-Oct-14 04:29N 48°31' W 005°50'4 8.2
2017-Oct-14 03:59N 48°28' W 005°53'1711.5
2017-Oct-14 02:33N 48°13' W 006°05'512.1
2017-Oct-14 02:07N 48°09' W 006°09'112.1
2017-Oct-14 02:00N 48°08' W 006°10'812.2
2017-Oct-14 01:22N 48°01' W 006°15'1312.3
2017-Oct-14 00:18N 47°49' W 006°24'412.5
2017-Oct-13 23:59N 47°46' W 006°26'40412.6
2017-Oct-12 15:56N 41°30' W 009°57'613.3
2017-Oct-12 15:30N 41°25' W 009°57'813.0
2017-Oct-12 14:55N 41°17' W 009°57'812.4
2017-Oct-12 14:18N 41°09' W 009°57'412.2
2017-Oct-12 13:59N 41°05' W 009°57'712.3
2017-Oct-12 13:25N 40°58' W 009°57'512.5
2017-Oct-12 12:59N 40°53' W 009°57'912.6
2017-Oct-12 12:19N 40°45' W 009°57'  

Dump ship's entire track history